Latest Coastal Weather Observations for Dunalley

IDT60701

Issued at 7:21 pm EST Saturday 29 August 2015 (issued every 10 minutes, with the page automatically refreshed every 10 minutes)

About coastal observations | Map of coastal stations | Coastal observations for TAS | Marine services | Other Formats
Station Details ID: 094254 Name: DUNALLEY (STROUD POINT) Lat: -42.90 Lon: 147.79 Height: 12.43 m
Data from the previous 72 hours. | See also: Recent months at Dunalley
Date/Time
EST
Temp

°C
Wind Pressure Rain
since 9am
mm
Weather Cloud Vis
km
Sea
Height
m
Swell
Dir
 
Speed
knots
Gust
knots
hPa Trend Height
m
Period
s
Dir
29/07:00pm 8.3 SSW 19 24 1024.2 - 0.0 - - - - - - -
29/06:30pm 8.3 SSW 17 21 1023.9 - 0.0 - - - - - - -
29/06:00pm 8.3 SSW 19 24 1023.5 - 0.0 - - - - - - -
29/05:30pm 8.4 SSW 17 24 1023.2 - 0.0 - - - - - - -
29/05:00pm 8.2 SSW 19 26 1022.8 - 0.0 - - - - - - -
29/04:30pm 8.2 SSW 19 24 1022.5 - 0.0 - - - - - - -
29/04:00pm 8.0 SSW 20 26 1022.4 - 0.0 - - - - - - -
29/03:30pm 8.1 SSW 19 23 1022.3 - 0.0 - - - - - - -
29/03:00pm 8.3 SSW 20 27 1022.3 - 0.0 - - - - - - -
29/02:30pm 8.5 SSW 20 23 1021.9 - 0.0 - - - - - - -
29/02:00pm 8.6 SSW 17 22 1021.9 - 0.0 - - - - - - -
29/01:30pm 8.6 SSW 19 25 1021.6 - 0.0 - - - - - - -
29/01:00pm 8.7 SSW 18 25 1021.7 - 0.0 - - - - - - -
29/12:30pm 9.1 S 18 25 1021.7 - 0.0 - - - - - - -
29/12:00pm 8.9 SSW 20 25 1021.8 - 0.0 - - - - - - -
29/11:30am 8.8 SSW 17 22 1022.0 - 0.0 - - - - - - -
29/11:00am 8.9 SSW 18 23 1022.0 - 0.0 - - - - - - -
29/10:30am 8.9 SSW 20 28 1021.8 - 0.0 - - - - - - -
29/10:22am 8.8 SSW 18 28 1021.7 - 0.0 - - - - - - -
29/10:00am 8.8 SSW 19 25 1021.7 - 0.0 - - - - - - -
29/09:30am 8.9 SSW 21 27 1021.4 - 0.0 - - - - - - -
29/09:00am 8.8 SSW 20 28 1021.3 - 13.2 Recent precip. - - - - - -
29/08:38am 8.8 SSW 22 32 1020.8 - 13.0 - - - - - - -
29/08:30am 8.8 SSW 21 26 1020.7 - 13.0 - - - - - - -
29/08:00am 8.7 S 18 24 1020.4 - 13.0 - - - - - - -
29/07:56am 8.8 SSW 18 28 1020.4 - 12.8 - - - - - - -
29/07:30am 9.0 S 20 29 1019.8 - 12.8 - - - - - - -
29/07:00am 9.0 S 20 28 1019.4 - 12.4 - - - - - - -
29/06:30am 9.0 S 20 29 1018.8 - 11.8 - - - - - - -
29/06:00am 8.9 S 16 26 1018.6 - 11.0 Rain - - - - - -
29/05:58am 8.8 S 15 26 1018.5 - 11.0 - - - - - - -
29/05:30am 8.3 S 8 10 1018.4 - 10.4 - - - - - - -
29/05:00am 8.0 SW 10 13 1018.2 - 10.0 - - - - - - -
29/04:30am 7.3 SW 10 11 1018.2 - 9.4 - - - - - - -
29/04:00am 7.2 SW 10 13 1018.3 - 9.0 - - - - - - -
29/03:30am 7.0 SSW 12 15 1018.1 - 8.8 - - - - - - -
29/03:00am 6.9 SSW 12 14 1018.1 - 8.8 Recent precip. - - - - - -
29/02:30am 6.7 SSW 11 13 1018.3 - 8.6 - - - - - - -
29/02:00am 6.9 SSW 14 16 1018.2 - 8.4 - - - - - - -
29/01:30am 7.5 SSW 16 20 1017.9 - 8.4 - - - - - - -
29/01:00am 7.3 SSW 14 17 1017.9 - 8.4 - - - - - - -
29/12:30am 7.8 SSW 21 25 1017.8 - 8.4 - - - - - - -
29/12:00am 7.6 WSW 20 25 1017.5 - 8.4 Recent precip. - - - - - -
 
Date/Time
EST
Temp

°C
Wind Pressure Rain
since 9am
mm
Weather Cloud Vis
km
Sea
Height
m
Swell
Dir
 
Speed
knots
Gust
knots
hPa Trend Height
m
Period
s
Dir
28/11:30pm 6.5 WSW 27 33 1017.2 - 8.4 - - - - - - -
28/11:28pm 6.7 WSW 27 33 1017.3 - 8.4 - - - - - - -
28/11:05pm 5.7 W 28 39 1016.5 - 8.4 - - - - - - -
28/11:00pm 5.3 W 23 37 1016.5 - 8.2 - - - - - - -
28/10:30pm 5.6 W 27 34 1017.9 - 7.6 - - - - - - -
28/10:00pm 4.6 W 21 28 1018.4 - 7.4 - - - - - - -
28/09:57pm 4.8 W 22 33 1018.5 - 7.4 - - - - - - -
28/09:30pm 4.0 W 23 30 1019.0 - 7.2 - - - - - - -
28/09:08pm 3.2 W 22 32 1019.6 - 5.8 - - - - - - -
28/09:00pm 3.9 W 24 33 1019.6 - 5.0 Rain - - - - - -
28/08:30pm 3.9 W 25 32 1020.3 - 4.0 - - - - - - -
28/08:00pm 4.2 W 24 31 1020.7 - 3.4 - - - - - - -
28/07:30pm 4.5 WSW 29 35 1021.5 - 3.2 - - - - - - -
28/07:00pm 5.1 WSW 26 32 1022.1 - 2.4 - - - - - - -
28/06:30pm 5.4 WSW 21 26 1022.5 - 2.2 - - - - - - -
28/06:00pm 4.9 SW 24 31 1023.0 - 1.8 Rain - - - - - -
28/05:30pm 5.0 SW 22 27 1022.9 - 1.4 - - - - - - -
28/05:02pm 5.6 SW 23 35 1023.2 - 1.0 - - - - - - -
28/05:00pm 5.9 SW 22 30 1023.2 - 1.0 - - - - - - -
28/04:48pm 6.1 SW 26 37 1023.2 - 1.0 - - - - - - -
28/04:40pm 5.8 SW 28 37 1023.0 - 1.0 - - - - - - -
28/04:30pm 7.4 SW 21 31 1023.0 - 1.0 - - - - - - -
28/04:24pm 7.1 SW 20 31 1023.1 - 1.0 - - - - - - -
28/04:00pm 6.8 SW 23 30 1023.1 - 1.0 - - - - - - -
28/03:54pm 6.7 SW 18 28 1023.2 - 1.0 - - - - - - -
28/03:30pm 5.9 SW 21 27 1023.9 - 1.0 - - - - - - -
28/03:20pm 5.8 SSW 25 35 1024.1 - 1.0 - - - - - - -
28/03:00pm 7.2 SSW 24 31 1023.9 - 0.8 - - - - - - -
28/02:30pm 6.7 SSW 21 31 1024.0 - 0.8 - - - - - - -
28/02:26pm 6.2 SSW 25 35 1024.1 - 0.8 - - - - - - -
28/02:00pm 7.9 SSW 22 27 1024.0 - 0.8 - - - - - - -
28/01:30pm 6.3 S 24 36 1024.7 - 0.8 - - - - - - -
28/01:25pm 7.2 SSW 22 36 1024.4 - 0.8 - - - - - - -
28/01:00pm 8.3 SSW 22 29 1024.8 - 0.8 - - - - - - -
28/12:30pm 8.3 SSW 22 28 1025.0 - 0.8 - - - - - - -
28/12:00pm 7.2 S 20 29 1025.5 - 0.8 - - - - - - -
28/11:30am 7.9 SSW 17 25 1025.6 - 0.8 - - - - - - -
28/11:00am 6.4 SSW 15 22 1026.0 - 0.8 - - - - - - -
28/10:30am 6.2 S 17 22 1026.3 - 0.2 - - - - - - -
28/10:00am 7.6 SSW 15 19 1026.0 - 0.0 - - - - - - -
28/09:30am 6.4 S 21 32 1026.0 - 0.0 - - - - - - -
28/09:28am 6.2 SSW 20 32 1026.1 - 0.0 - - - - - - -
28/09:23am 6.7 SW 17 32 1025.9 - 0.0 - - - - - - -
28/09:22am 7.1 SW 16 32 1026.0 - 0.0 - - - - - - -
28/09:00am 6.3 SW 18 27 1026.1 - 1.0 Recent precip. - - - - - -
28/08:52am 7.0 SSW 16 27 1026.1 - 1.0 - - - - - - -
28/08:30am 6.2 S 15 21 1026.0 - 1.0 - - - - - - -
28/08:00am 6.4 S 13 16 1026.1 - 0.8 - - - - - - -
28/07:40am 5.4 SSW 17 25 1025.9 - 0.8 - - - - - - -
28/07:30am 5.9 SW 23 27 1025.7 - 0.6 - - - - - - -
28/07:00am 6.6 SSW 18 21 1025.2 - 0.6 - - - - - - -
28/06:38am 6.0 SSW 16 26 1025.2 - 0.6 - - - - - - -
28/06:30am 6.0 SSW 20 27 1025.0 - 0.6 - - - - - - -
28/06:18am 6.9 SSW 17 31 1024.8 - 0.6 - - - - - - -
28/06:00am 7.0 SSW 13 20 1024.7 - 0.6 - - - - - - -
28/05:30am 7.2 SSW 16 19 1024.5 - 0.6 - - - - - - -
28/05:00am 7.3 SSW 14 17 1024.2 - 0.6 - - - - - - -
28/04:30am 7.3 SSW 12 16 1024.0 - 0.6 - - - - - - -
28/04:00am 7.2 SSW 13 15 1023.9 - 0.4 - - - - - - -
28/03:30am 7.2 SSW 12 17 1023.6 - 0.4 - - - - - - -
28/03:00am 7.3 SSW 12 15 1023.5 - 0.4 - - - - - - -
28/02:30am 7.2 SSW 17 22 1023.5 - 0.4 - - - - - - -
28/02:00am 7.5 SSW 18 21 1023.3 - 0.4 - - - - - - -
28/01:30am 8.0 SSW 16 20 1023.0 - 0.2 - - - - - - -
28/01:00am 7.9 WSW 15 18 1022.8 - 0.2 - - - - - - -
28/12:30am 8.6 WSW 11 13 1022.8 - 0.0 - - - - - - -
28/12:00am 8.4 WSW 9 10 1022.7 - 0.0 - - - - - - -
 
Date/Time
EST
Temp

°C
Wind Pressure Rain
since 9am
mm
Weather Cloud Vis
km
Sea
Height
m
Swell
Dir
 
Speed
knots
Gust
knots
hPa Trend Height
m
Period
s
Dir
27/11:30pm 8.5 NNE 9 11 1022.7 - 0.0 - - - - - - -
27/11:00pm 7.6 NE 6 7 1023.1 - 0.0 - - - - - - -
27/10:30pm 8.7 NE 6 7 1023.2 - 0.0 - - - - - - -
27/10:00pm 9.2 NE 9 9 1023.0 - 0.0 - - - - - - -
27/09:30pm 9.1 NE 7 7 1023.3 - 0.0 - - - - - - -
27/09:00pm 9.0 NE 4 5 1023.2 - 0.0 - - - - - - -
27/08:30pm 9.3 NE 5 5 1023.1 - 0.0 - - - - - - -
27/08:00pm 9.5 NE 7 8 1023.0 - 0.0 - - - - - - -
27/07:30pm 9.3 NE 5 6 1022.8 - 0.0 - - - - - - -
27/07:00pm 9.2 NE 5 5 1022.6 - 0.0 - - - - - - -
27/06:30pm 9.6 NE 5 7 1022.4 - 0.0 - - - - - - -
27/06:00pm 9.6 NE 4 5 1022.2 - 0.0 - - - - - - -
27/05:30pm 9.7 NE 6 8 1021.9 - 0.0 - - - - - - -
27/05:00pm 10.1 NE 6 9 1021.7 - 0.0 - - - - - - -
27/04:30pm 10.1 NE 2 3 1021.7 - 0.0 - - - - - - -
27/04:00pm 10.5 NE 3 4 1021.6 - 0.0 - - - - - - -
27/03:30pm 10.9 NE 5 7 1021.5 - 0.0 - - - - - - -
27/03:00pm 10.8 NE 6 7 1021.6 - 0.0 - - - - - - -
27/02:30pm 10.9 NE 7 8 1021.6 - 0.0 - - - - - - -
27/02:00pm 10.7 NE 4 4 1021.6 - 0.0 - - - - - - -
27/01:30pm 10.3 NE 2 3 1021.9 - 0.0 - - - - - - -
27/01:00pm 10.0 NE 3 3 1022.3 - 0.0 - - - - - - -
27/12:30pm 9.8 NE 2 3 1022.7 - 0.0 - - - - - - -
27/12:00pm 9.1 NE 3 3 1023.1 - 0.0 - - - - - - -
27/11:30am 9.1 NE 2 2 1023.4 - 0.0 - - - - - - -
27/11:00am 8.6 NE 2 3 1023.7 - 0.0 - - - - - - -
27/10:30am 8.3 NE 4 5 1023.9 - 0.0 - - - - - - -
27/10:00am 8.1 NE 5 6 1024.2 - 0.0 - - - - - - -
27/09:30am 7.9 NE 5 6 1024.3 - 0.0 - - - - - - -
27/09:00am 7.8 NE 5 5 1024.4 - 0.0 - - - - - - -
27/08:30am 7.4 NE 3 4 1024.6 - 0.0 - - - - - - -
27/08:00am 7.1 NE 3 4 1024.6 - 0.0 - - - - - - -
27/07:30am 6.6 NE 2 2 1024.4 - 0.0 - - - - - - -
27/07:00am 6.6 NE 5 5 1024.2 - 0.0 - - - - - - -
27/06:30am 6.5 NE 5 5 1024.1 - 0.0 - - - - - - -
27/06:00am 6.8 NE 4 5 1023.9 - 0.0 - - - - - - -
27/05:30am 6.4 NE 3 3 1024.0 - 0.0 - - - - - - -
27/05:00am 6.6 NE 4 5 1023.9 - 0.0 - - - - - - -
27/04:30am 6.4 NE 3 4 1024.1 - 0.0 - - - - - - -
27/04:00am 6.5 CALM 0 0 1024.4 - 0.0 - - - - - - -
27/03:30am 6.7 NE 1 2 1024.7 - 0.0 - - - - - - -
27/03:00am 6.4 CALM 0 1 1025.0 - 0.0 - - - - - - -
27/02:30am 6.8 NE 3 3 1025.2 - 0.0 - - - - - - -
27/02:00am 6.7 CALM 0 0 1025.8 - 0.0 - - - - - - -
27/01:30am 6.8 NE 1 3 1026.1 - 0.0 - - - - - - -
27/01:00am 6.6 NE 2 3 1026.4 - 0.0 - - - - - - -
27/12:30am 7.8 NE 4 5 1026.5 - 0.0 - - - - - - -
27/12:00am 8.1 NE 1 2 1026.6 - 0.0 - - - - - - -
 
Date/Time
EST
Temp

°C
Wind Pressure Rain
since 9am
mm
Weather Cloud Vis
km
Sea
Height
m
Swell
Dir
 
Speed
knots
Gust
knots
hPa Trend Height
m
Period
s
Dir
26/11:30pm 8.3 NE 5 6 1026.8 - 0.0 - - - - - - -
26/11:00pm 8.3 NE 2 3 1026.9 - 0.0 - - - - - - -
26/10:30pm 8.5 CALM 0 2 1027.1 - 0.0 - - - - - - -
26/10:00pm 9.2 NE 5 7 1027.4 - 0.0 - - - - - - -
26/09:30pm 8.9 ENE 5 6 1027.5 - 0.0 - - - - - - -
26/09:00pm 8.4 NE 4 7 1027.5 - 0.0 - - - - - - -
26/08:30pm 8.8 NE 7 9 1027.4 - 0.0 - - - - - - -
26/08:00pm 9.1 NE 7 9 1027.4 - 0.0 - - - - - - -
26/07:30pm 9.0 NE 8 9 1027.5 - 0.0 - - - - - - -

Other Formats:

Comma delimited format used in spreadsheet applications
http://www.bom.gov.au/fwo/IDT60701/IDT60701.94951.axf

JavaScript Object Notation format (JSON) in row-major order
http://www.bom.gov.au/fwo/IDT60701/IDT60701.94951.json